sensor_id;sensor_type;location;lat;lon;timestamp;pressure;altitude;pressure_sealevel;temperature;humidity
26376;BME280;30544;42.196;24.336;2022-11-20T00:01:52;98556.59;;;12.21;100.00
26376;BME280;30544;42.196;24.336;2022-11-20T00:04:19;98553.84;;;12.26;100.00
26376;BME280;30544;42.196;24.336;2022-11-20T00:06:47;98568.22;;;12.08;100.00
26376;BME280;30544;42.196;24.336;2022-11-20T00:09:14;98566.63;;;12.27;100.00
26376;BME280;30544;42.196;24.336;2022-11-20T00:11:41;98561.34;;;12.36;100.00
26376;BME280;30544;42.196;24.336;2022-11-20T00:14:09;98560.53;;;12.41;100.00
26376;BME280;30544;42.196;24.336;2022-11-20T00:16:40;98573.59;;;12.40;99.61
26376;BME280;30544;42.196;24.336;2022-11-20T00:19:07;98582.50;;;12.32;99.69
26376;BME280;30544;42.196;24.336;2022-11-20T00:21:34;98593.09;;;12.50;99.11
26376;BME280;30544;42.196;24.336;2022-11-20T00:24:00;98574.94;;;12.22;100.00
26376;BME280;30544;42.196;24.336;2022-11-20T00:26:30;98561.31;;;12.21;100.00
26376;BME280;30544;42.196;24.336;2022-11-20T00:28:58;98568.88;;;12.30;100.00
26376;BME280;30544;42.196;24.336;2022-11-20T00:31:26;98556.91;;;12.30;100.00
26376;BME280;30544;42.196;24.336;2022-11-20T00:33:57;98545.47;;;12.11;100.00
26376;BME280;30544;42.196;24.336;2022-11-20T00:36:25;98549.13;;;12.42;100.00
26376;BME280;30544;42.196;24.336;2022-11-20T00:38:53;98573.88;;;12.39;100.00
26376;BME280;30544;42.196;24.336;2022-11-20T00:41:23;98564.88;;;11.96;100.00
26376;BME280;30544;42.196;24.336;2022-11-20T00:43:51;98566.59;;;12.12;100.00
26376;BME280;30544;42.196;24.336;2022-11-20T00:46:21;98570.22;;;12.18;100.00
26376;BME280;30544;42.196;24.336;2022-11-20T00:48:48;98554.09;;;12.20;100.00
26376;BME280;30544;42.196;24.336;2022-11-20T00:51:18;98571.28;;;12.07;100.00
26376;BME280;30544;42.196;24.336;2022-11-20T00:53:45;98576.63;;;12.23;100.00
26376;BME280;30544;42.196;24.336;2022-11-20T00:56:13;98557.16;;;12.18;100.00
26376;BME280;30544;42.196;24.336;2022-11-20T00:58:43;98552.94;;;12.05;100.00
26376;BME280;30544;42.196;24.336;2022-11-20T01:01:12;98553.81;;;12.16;100.00
26376;BME280;30544;42.196;24.336;2022-11-20T01:03:40;98556.91;;;12.30;100.00
26376;BME280;30544;42.196;24.336;2022-11-20T01:06:10;98555.19;;;12.24;100.00
26376;BME280;30544;42.196;24.336;2022-11-20T01:08:39;98542.13;;;12.19;100.00
26376;BME280;30544;42.196;24.336;2022-11-20T01:11:07;98537.72;;;12.33;100.00
26376;BME280;30544;42.196;24.336;2022-11-20T01:13:35;98522.69;;;12.14;100.00
26376;BME280;30544;42.196;24.336;2022-11-20T01:16:06;98499.81;;;11.87;100.00
26376;BME280;30544;42.196;24.336;2022-11-20T01:18:33;98506.84;;;12.15;100.00
26376;BME280;30544;42.196;24.336;2022-11-20T01:21:02;98516.75;;;11.90;100.00
26376;BME280;30544;42.196;24.336;2022-11-20T01:23:33;98499.84;;;12.07;100.00
26376;BME280;30544;42.196;24.336;2022-11-20T01:26:02;98494.31;;;12.17;100.00
26376;BME280;30544;42.196;24.336;2022-11-20T01:28:29;98507.66;;;12.25;100.00
26376;BME280;30544;42.196;24.336;2022-11-20T01:30:57;98503.25;;;12.34;100.00
26376;BME280;30544;42.196;24.336;2022-11-20T01:33:23;98504.88;;;12.10;100.00
26376;BME280;30544;42.196;24.336;2022-11-20T01:35:51;98499.31;;;12.10;100.00
26376;BME280;30544;42.196;24.336;2022-11-20T01:38:18;98496.78;;;12.09;100.00
26376;BME280;30544;42.196;24.336;2022-11-20T01:40:53;98496.00;;;12.18;100.00
26376;BME280;30544;42.196;24.336;2022-11-20T01:43:24;98481.81;;;12.25;100.00
26376;BME280;30544;42.196;24.336;2022-11-20T01:46:00;98480.44;;;12.12;100.00
26376;BME280;30544;42.196;24.336;2022-11-20T01:48:35;98470.97;;;12.13;100.00
26376;BME280;30544;42.196;24.336;2022-11-20T01:51:04;98468.16;;;12.08;100.00
26376;BME280;30544;42.196;24.336;2022-11-20T01:53:34;98484.28;;;12.06;100.00
26376;BME280;30544;42.196;24.336;2022-11-20T01:56:08;98476.81;;;12.12;100.00
26376;BME280;30544;42.196;24.336;2022-11-20T01:58:42;98467.63;;;11.96;100.00
26376;BME280;30544;42.196;24.336;2022-11-20T02:01:10;98478.75;;;12.16;100.00
26376;BME280;30544;42.196;24.336;2022-11-20T02:03:41;98490.91;;;11.85;100.00
26376;BME280;30544;42.196;24.336;2022-11-20T02:06:12;98480.34;;;11.82;100.00
26376;BME280;30544;42.196;24.336;2022-11-20T02:08:41;98472.56;;;11.89;100.00
26376;BME280;30544;42.196;24.336;2022-11-20T02:11:08;98479.28;;;11.93;100.00
26376;BME280;30544;42.196;24.336;2022-11-20T02:13:35;98473.66;;;11.78;100.00
26376;BME280;30544;42.196;24.336;2022-11-20T02:16:15;98492.50;;;11.70;100.00
26376;BME280;30544;42.196;24.336;2022-11-20T02:18:43;98469.72;;;11.73;100.00
26376;BME280;30544;42.196;24.336;2022-11-20T02:21:17;98480.56;;;11.75;100.00
26376;BME280;30544;42.196;24.336;2022-11-20T02:24:11;98459.25;;;11.86;100.00
26376;BME280;30544;42.196;24.336;2022-11-20T02:26:42;98453.72;;;12.01;100.00
26376;BME280;30544;42.196;24.336;2022-11-20T02:29:10;98467.84;;;11.89;100.00
26376;BME280;30544;42.196;24.336;2022-11-20T02:31:40;98462.06;;;12.06;100.00
26376;BME280;30544;42.196;24.336;2022-11-20T02:34:07;98459.31;;;12.11;100.00
26376;BME280;30544;42.196;24.336;2022-11-20T02:36:35;98464.28;;;12.09;100.00
26376;BME280;30544;42.196;24.336;2022-11-20T02:39:03;98468.72;;;12.00;100.00
26376;BME280;30544;42.196;24.336;2022-11-20T02:41:33;98470.94;;;12.03;100.00
26376;BME280;30544;42.196;24.336;2022-11-20T02:44:00;98472.38;;;12.11;100.00
26376;BME280;30544;42.196;24.336;2022-11-20T02:46:27;98476.81;;;12.12;100.00
26376;BME280;30544;42.196;24.336;2022-11-20T02:48:54;98470.97;;;12.18;100.00
26376;BME280;30544;42.196;24.336;2022-11-20T02:51:21;98474.28;;;12.00;100.00
26376;BME280;30544;42.196;24.336;2022-11-20T02:53:48;98465.13;;;11.99;100.00
26376;BME280;30544;42.196;24.336;2022-11-20T02:56:15;98458.72;;;11.99;100.00
26376;BME280;30544;42.196;24.336;2022-11-20T02:58:43;98448.41;;;11.84;100.00
26376;BME280;30544;42.196;24.336;2022-11-20T03:01:10;98457.28;;;11.81;100.00
26376;BME280;30544;42.196;24.336;2022-11-20T03:03:37;98442.28;;;11.92;100.00
26376;BME280;30544;42.196;24.336;2022-11-20T03:06:04;98430.06;;;11.88;100.00
26376;BME280;30544;42.196;24.336;2022-11-20T03:08:31;98428.69;;;11.91;100.00
26376;BME280;30544;42.196;24.336;2022-11-20T03:11:02;98419.53;;;12.00;100.00
26376;BME280;30544;42.196;24.336;2022-11-20T03:13:29;98423.44;;;11.99;100.00
26376;BME280;30544;42.196;24.336;2022-11-20T03:15:58;98421.19;;;11.91;100.00
26376;BME280;30544;42.196;24.336;2022-11-20T03:18:27;98429.50;;;11.86;100.00
26376;BME280;30544;42.196;24.336;2022-11-20T03:20:57;98428.13;;;11.79;100.00
26376;BME280;30544;42.196;24.336;2022-11-20T03:23:23;98437.59;;;11.98;100.00
26376;BME280;30544;42.196;24.336;2022-11-20T03:25:53;98431.19;;;11.92;100.00
26376;BME280;30544;42.196;24.336;2022-11-20T03:28:19;98437.00;;;11.86;100.00
26376;BME280;30544;42.196;24.336;2022-11-20T03:30:46;98435.94;;;12.02;100.00
26376;BME280;30544;42.196;24.336;2022-11-20T03:33:14;98432.31;;;12.07;100.00
26376;BME280;30544;42.196;24.336;2022-11-20T03:35:41;98438.44;;;11.93;100.00
26376;BME280;30544;42.196;24.336;2022-11-20T03:38:07;98440.94;;;12.05;100.00
26376;BME280;30544;42.196;24.336;2022-11-20T03:40:34;98441.38;;;11.71;100.00
26376;BME280;30544;42.196;24.336;2022-11-20T03:43:02;98445.84;;;11.72;100.00
26376;BME280;30544;42.196;24.336;2022-11-20T03:45:29;98434.25;;;11.81;100.00
26376;BME280;30544;42.196;24.336;2022-11-20T03:47:55;98432.31;;;12.07;100.00
26376;BME280;30544;42.196;24.336;2022-11-20T03:50:24;98433.97;;;12.08;100.00
26376;BME280;30544;42.196;24.336;2022-11-20T03:52:50;98454.56;;;11.96;100.00
26376;BME280;30544;42.196;24.336;2022-11-20T03:55:17;98469.31;;;12.22;100.00
26376;BME280;30544;42.196;24.336;2022-11-20T03:57:44;98474.59;;;12.29;100.00
26376;BME280;30544;42.196;24.336;2022-11-20T04:00:12;98472.13;;;12.48;100.00
26376;BME280;30544;42.196;24.336;2022-11-20T04:02:39;98471.53;;;12.56;100.00
26376;BME280;30544;42.196;24.336;2022-11-20T04:05:06;98481.28;;;12.43;100.00
26376;BME280;30544;42.196;24.336;2022-11-20T04:07:35;98476.53;;;12.39;100.00
26376;BME280;30544;42.196;24.336;2022-11-20T04:10:05;98467.94;;;12.55;100.00
26376;BME280;30544;42.196;24.336;2022-11-20T04:12:32;98466.81;;;12.56;100.00
26376;BME280;30544;42.196;24.336;2022-11-20T04:14:59;98474.88;;;12.53;99.54
26376;BME280;30544;42.196;24.336;2022-11-20T04:17:26;98464.31;;;12.40;100.00
26376;BME280;30544;42.196;24.336;2022-11-20T04:19:53;98455.41;;;12.58;100.00
26376;BME280;30544;42.196;24.336;2022-11-20T04:22:19;98467.94;;;12.55;100.00
26376;BME280;30544;42.196;24.336;2022-11-20T04:24:48;98441.78;;;12.36;100.00
26376;BME280;30544;42.196;24.336;2022-11-20T04:27:17;98457.09;;;12.54;100.00
26376;BME280;30544;42.196;24.336;2022-11-20T04:29:43;98466.00;;;12.61;99.98
26376;BME280;30544;42.196;24.336;2022-11-20T04:32:10;98468.19;;;12.59;99.55
26376;BME280;30544;42.196;24.336;2022-11-20T04:34:37;98462.94;;;12.52;100.00
26376;BME280;30544;42.196;24.336;2022-11-20T04:37:04;98466.00;;;12.61;99.24
26376;BME280;30544;42.196;24.336;2022-11-20T04:39:30;98486.25;;;12.26;100.00
26376;BME280;30544;42.196;24.336;2022-11-20T04:41:59;98469.88;;;12.29;100.00
26376;BME280;30544;42.196;24.336;2022-11-20T04:44:43;98453.50;;;12.43;100.00
26376;BME280;30544;42.196;24.336;2022-11-20T04:47:12;98457.09;;;12.44;100.00
26376;BME280;30544;42.196;24.336;2022-11-20T04:49:39;98454.84;;;12.41;100.00
26376;BME280;30544;42.196;24.336;2022-11-20T04:52:05;98464.34;;;12.45;100.00
26376;BME280;30544;42.196;24.336;2022-11-20T04:54:32;98459.84;;;12.23;100.00
26376;BME280;30544;42.196;24.336;2022-11-20T04:57:03;98449.03;;;12.17;100.00
26376;BME280;30544;42.196;24.336;2022-11-20T04:59:32;98442.06;;;12.19;100.00
26376;BME280;30544;42.196;24.336;2022-11-20T05:01:58;98447.59;;;12.04;100.00
26376;BME280;30544;42.196;24.336;2022-11-20T06:26:47;98529.13;;;12.86;100.00
26376;BME280;30544;42.196;24.336;2022-11-20T06:29:14;98529.41;;;12.89;100.00
26376;BME280;30544;42.196;24.336;2022-11-20T06:31:41;98524.66;;;12.90;100.00
26376;BME280;30544;42.196;24.336;2022-11-20T06:34:08;98509.06;;;13.14;100.00
26376;BME280;30544;42.196;24.336;2022-11-20T06:36:35;98521.59;;;13.12;100.00
26376;BME280;30544;42.196;24.336;2022-11-20T06:39:02;98502.94;;;13.07;100.00
26376;BME280;30544;42.196;24.336;2022-11-20T06:41:29;98510.72;;;13.31;100.00
26376;BME280;30544;42.196;24.336;2022-11-20T06:43:57;98515.63;;;13.59;100.00
26376;BME280;30544;42.196;24.336;2022-11-20T06:46:23;98506.22;;;13.45;100.00
26376;BME280;30544;42.196;24.336;2022-11-20T06:48:50;98499.75;;;13.65;100.00
26376;BME280;30544;42.196;24.336;2022-11-20T06:51:17;98508.03;;;13.75;100.00
26376;BME280;30544;42.196;24.336;2022-11-20T06:53:44;98500.13;;;14.02;100.00
26376;BME280;30544;42.196;24.336;2022-11-20T06:56:11;98493.09;;;14.10;99.77
26376;BME280;30544;42.196;24.336;2022-11-20T06:58:38;98486.75;;;13.99;100.00
26376;BME280;30544;42.196;24.336;2022-11-20T07:01:09;98493.28;;;14.29;100.00
26376;BME280;30544;42.196;24.336;2022-11-20T07:03:36;98512.69;;;14.44;100.00
26376;BME280;30544;42.196;24.336;2022-11-20T07:06:04;98512.44;;;14.80;99.31
26376;BME280;30544;42.196;24.336;2022-11-20T07:08:31;98510.66;;;14.89;98.70
26376;BME280;30544;42.196;24.336;2022-11-20T07:24:17;98523.38;;;16.43;91.13
26376;BME280;30544;42.196;24.336;2022-11-20T07:26:46;98507.19;;;16.03;92.71
26376;BME280;30544;42.196;24.336;2022-11-20T07:29:12;98518.47;;;16.35;91.80
26376;BME280;30544;42.196;24.336;2022-11-20T07:31:39;98523.34;;;16.67;90.65
26376;BME280;30544;42.196;24.336;2022-11-20T07:34:06;98515.78;;;16.68;89.75
26376;BME280;30544;42.196;24.336;2022-11-20T07:36:32;98517.78;;;16.62;90.21
26376;BME280;30544;42.196;24.336;2022-11-20T07:38:59;98511.66;;;16.60;90.41
26376;BME280;30544;42.196;24.336;2022-11-20T07:41:27;98515.97;;;16.52;91.12
26376;BME280;30544;42.196;24.336;2022-11-20T07:43:54;98509.91;;;16.45;92.08
26376;BME280;30544;42.196;24.336;2022-11-20T07:46:21;98509.16;;;16.59;92.59
26376;BME280;30544;42.196;24.336;2022-11-20T07:48:48;98504.59;;;16.63;92.44
26376;BME280;30544;42.196;24.336;2022-11-20T07:51:14;98511.75;;;16.74;91.29
26376;BME280;30544;42.196;24.336;2022-11-20T07:53:41;98509.69;;;16.79;91.14
26376;BME280;30544;42.196;24.336;2022-11-20T07:56:08;98503.19;;;16.84;88.96
26376;BME280;30544;42.196;24.336;2022-11-20T07:58:36;98510.66;;;17.21;88.31
26376;BME280;30544;42.196;24.336;2022-11-20T08:01:03;98514.50;;;17.25;87.61
26376;BME280;30544;42.196;24.336;2022-11-20T08:03:30;98513.34;;;17.26;87.49
26376;BME280;30544;42.196;24.336;2022-11-20T08:05:58;98496.16;;;17.33;88.05
26376;BME280;30544;42.196;24.336;2022-11-20T08:08:25;98495.53;;;17.36;87.26
26376;BME280;30544;42.196;24.336;2022-11-20T08:10:52;98494.78;;;17.17;89.17
26376;BME280;30544;42.196;24.336;2022-11-20T08:13:40;98495.13;;;17.56;87.08
26376;BME280;30544;42.196;24.336;2022-11-20T08:16:24;98513.19;;;17.50;88.28
26376;BME280;30544;42.196;24.336;2022-11-20T08:18:51;98519.44;;;17.47;87.48
26376;BME280;30544;42.196;24.336;2022-11-20T08:21:18;98508.41;;;17.37;87.88
26376;BME280;30544;42.196;24.336;2022-11-20T08:23:45;98514.06;;;17.78;86.47
26376;BME280;30544;42.196;24.336;2022-11-20T08:26:11;98505.09;;;17.62;87.38
26376;BME280;30544;42.196;24.336;2022-11-20T08:28:38;98506.06;;;17.71;87.93
26376;BME280;30544;42.196;24.336;2022-11-20T08:31:06;98504.19;;;17.94;86.73
26376;BME280;30544;42.196;24.336;2022-11-20T08:33:35;98502.63;;;18.02;85.49
26376;BME280;30544;42.196;24.336;2022-11-20T08:36:03;98495.06;;;17.89;86.73
26376;BME280;30544;42.196;24.336;2022-11-20T08:38:30;98491.75;;;18.37;85.40
26376;BME280;30544;42.196;24.336;2022-11-20T08:40:58;98483.97;;;18.70;83.84
26376;BME280;30544;42.196;24.336;2022-11-20T08:43:38;98495.66;;;18.49;84.04
26376;BME280;30544;42.196;24.336;2022-11-20T08:46:06;98503.94;;;18.68;82.90
26376;BME280;30544;42.196;24.336;2022-11-20T08:48:33;98498.34;;;18.68;81.86
26376;BME280;30544;42.196;24.336;2022-11-20T08:51:00;98497.75;;;18.80;82.09
26376;BME280;30544;42.196;24.336;2022-11-20T08:53:27;98496.44;;;19.00;81.74
26376;BME280;30544;42.196;24.336;2022-11-20T08:55:53;98492.47;;;19.01;81.91
26376;BME280;30544;42.196;24.336;2022-11-20T08:58:20;98498.78;;;19.06;82.22
26376;BME280;30544;42.196;24.336;2022-11-20T09:00:47;98489.69;;;19.32;81.69
26376;BME280;30544;42.196;24.336;2022-11-20T09:03:15;98484.31;;;19.21;82.35
26376;BME280;30544;42.196;24.336;2022-11-20T09:05:42;98479.53;;;19.22;82.06
26376;BME280;30544;42.196;24.336;2022-11-20T09:08:09;98471.53;;;18.84;83.31
26376;BME280;30544;42.196;24.336;2022-11-20T09:10:35;98466.03;;;19.02;83.22
26376;BME280;30544;42.196;24.336;2022-11-20T09:13:05;98454.91;;;19.28;82.64
26376;BME280;30544;42.196;24.336;2022-11-20T09:15:32;98452.84;;;19.11;82.97
26376;BME280;30544;42.196;24.336;2022-11-20T09:18:00;98445.81;;;19.22;83.03
26376;BME280;30544;42.196;24.336;2022-11-20T09:20:29;98447.19;;;19.33;82.46
26376;BME280;30544;42.196;24.336;2022-11-20T09:22:57;98446.16;;;19.60;81.67
26376;BME280;30544;42.196;24.336;2022-11-20T09:25:24;98444.41;;;19.42;82.35
26376;BME280;30544;42.196;24.336;2022-11-20T09:27:54;98432.81;;;19.43;82.12
26376;BME280;30544;42.196;24.336;2022-11-20T09:30:21;98430.84;;;19.92;80.33
26376;BME280;30544;42.196;24.336;2022-11-20T09:32:48;98425.72;;;19.94;80.22
26376;BME280;30544;42.196;24.336;2022-11-20T09:35:15;98429.88;;;19.88;80.55
26376;BME280;30544;42.196;24.336;2022-11-20T09:37:44;98427.41;;;20.04;77.18
26376;BME280;30544;42.196;24.336;2022-11-20T09:40:19;98418.16;;;20.29;75.92
26376;BME280;30544;42.196;24.336;2022-11-20T09:42:54;98415.88;;;20.66;74.97
26376;BME280;30544;42.196;24.336;2022-11-20T09:45:27;98417.00;;;20.39;75.61
26376;BME280;30544;42.196;24.336;2022-11-20T09:48:05;98417.00;;;20.73;73.84
26376;BME280;30544;42.196;24.336;2022-11-20T09:50:38;98424.22;;;21.09;73.02
26376;BME280;30544;42.196;24.336;2022-11-20T09:53:22;98416.63;;;21.48;71.00
26376;BME280;30544;42.196;24.336;2022-11-20T09:55:51;98419.03;;;21.37;71.76
26376;BME280;30544;42.196;24.336;2022-11-20T09:58:25;98414.78;;;21.05;73.18
26376;BME280;30544;42.196;24.336;2022-11-20T10:00:56;98412.44;;;21.24;72.29
26376;BME280;30544;42.196;24.336;2022-11-20T10:03:36;98413.28;;;20.99;71.30
26376;BME280;30544;42.196;24.336;2022-11-20T10:06:05;98413.34;;;21.46;70.40
26376;BME280;30544;42.196;24.336;2022-11-20T10:08:41;98412.47;;;21.54;69.52
26376;BME280;30544;42.196;24.336;2022-11-20T10:11:18;98401.03;;;21.80;68.58
26376;BME280;30544;42.196;24.336;2022-11-20T10:13:54;98400.44;;;21.95;66.35
26376;BME280;30544;42.196;24.336;2022-11-20T10:16:32;98384.53;;;22.20;65.58
26376;BME280;30544;42.196;24.336;2022-11-20T10:19:14;98399.28;;;22.05;66.30
26376;BME280;30544;42.196;24.336;2022-11-20T10:21:55;98385.72;;;21.89;67.25
26376;BME280;30544;42.196;24.336;2022-11-20T10:27:33;98382.25;;;22.13;66.43
26376;BME280;30544;42.196;24.336;2022-11-20T10:30:09;98381.28;;;22.30;67.54
26376;BME280;30544;42.196;24.336;2022-11-20T10:32:39;98386.25;;;22.33;66.52
26376;BME280;30544;42.196;24.336;2022-11-20T10:35:15;98391.47;;;22.43;64.56
26376;BME280;30544;42.196;24.336;2022-11-20T10:37:47;98385.09;;;22.67;65.03
26376;BME280;30544;42.196;24.336;2022-11-20T10:40:23;98378.59;;;22.34;65.85
26376;BME280;30544;42.196;24.336;2022-11-20T10:42:56;98372.50;;;22.65;64.71
26376;BME280;30544;42.196;24.336;2022-11-20T10:45:36;98382.16;;;22.64;64.35
26376;BME280;30544;42.196;24.336;2022-11-20T10:48:20;98381.56;;;22.16;66.89
26376;BME280;30544;42.196;24.336;2022-11-20T10:51:15;98386.59;;;22.11;68.65
26376;BME280;30544;42.196;24.336;2022-11-20T10:53:54;98377.25;;;21.60;71.03
26376;BME280;30544;42.196;24.336;2022-11-20T10:56:27;98366.06;;;22.02;69.08
26376;BME280;30544;42.196;24.336;2022-11-20T10:59:11;98374.00;;;22.00;68.17
26376;BME280;30544;42.196;24.336;2022-11-20T11:01:40;98361.25;;;22.23;67.87
26376;BME280;30544;42.196;24.336;2022-11-20T11:04:21;98360.44;;;22.23;67.12
26376;BME280;30544;42.196;24.336;2022-11-20T11:06:51;98357.81;;;22.38;65.88
26376;BME280;30544;42.196;24.336;2022-11-20T11:09:26;98363.66;;;22.33;67.00
26376;BME280;30544;42.196;24.336;2022-11-20T11:11:58;98357.41;;;21.98;68.23
26376;BME280;30544;42.196;24.336;2022-11-20T11:14:24;98343.47;;;22.02;60.62
26376;BME280;30544;42.196;24.336;2022-11-20T11:16:53;98344.56;;;22.51;60.30
26376;BME280;30544;42.196;24.336;2022-11-20T11:19:20;98350.22;;;22.30;61.39
26376;BME280;30544;42.196;24.336;2022-11-20T11:21:48;98345.41;;;22.10;59.98
26376;BME280;30544;42.196;24.336;2022-11-20T11:24:20;98332.91;;;22.19;56.05
26376;BME280;30544;42.196;24.336;2022-11-20T11:26:52;98333.28;;;22.51;49.21
26376;BME280;30544;42.196;24.336;2022-11-20T11:41:24;98335.69;;;23.19;46.08
26376;BME280;30544;42.196;24.336;2022-11-20T11:43:53;98330.63;;;23.24;46.20
26376;BME280;30544;42.196;24.336;2022-11-20T11:46:39;98346.84;;;23.15;45.58
26376;BME280;30544;42.196;24.336;2022-11-20T11:49:16;98326.97;;;23.24;44.60
26376;BME280;30544;42.196;24.336;2022-11-20T11:51:55;98327.91;;;23.28;44.82
26376;BME280;30544;42.196;24.336;2022-11-20T11:54:25;98322.00;;;23.33;44.38
26376;BME280;30544;42.196;24.336;2022-11-20T11:57:03;98322.28;;;23.52;44.70
26376;BME280;30544;42.196;24.336;2022-11-20T11:59:41;98305.50;;;23.47;44.72
26376;BME280;30544;42.196;24.336;2022-11-20T12:02:22;98312.84;;;23.73;44.08
26376;BME280;30544;42.196;24.336;2022-11-20T12:04:54;98319.53;;;23.68;44.29
26376;BME280;30544;42.196;24.336;2022-11-20T12:07:33;98319.41;;;23.89;43.45
26376;BME280;30544;42.196;24.336;2022-11-20T12:10:04;98327.31;;;23.83;43.17
26376;BME280;30544;42.196;24.336;2022-11-20T12:12:36;98325.56;;;23.79;43.12
26376;BME280;30544;42.196;24.336;2022-11-20T12:15:10;98323.25;;;24.09;42.53
26376;BME280;30544;42.196;24.336;2022-11-20T12:17:37;98331.31;;;23.94;43.31
26376;BME280;30544;42.196;24.336;2022-11-20T12:20:10;98326.72;;;23.90;42.93
26376;BME280;30544;42.196;24.336;2022-11-20T12:22:43;98324.38;;;23.80;43.04
26376;BME280;30544;42.196;24.336;2022-11-20T12:25:18;98316.69;;;23.80;43.33
26376;BME280;30544;42.196;24.336;2022-11-20T12:28:12;98314.34;;;23.82;43.40
26376;BME280;30544;42.196;24.336;2022-11-20T12:30:51;98304.47;;;23.76;42.98
26376;BME280;30544;42.196;24.336;2022-11-20T12:33:33;98316.34;;;23.82;43.39
26376;BME280;30544;42.196;24.336;2022-11-20T12:36:11;98317.31;;;23.61;43.91
26376;BME280;30544;42.196;24.336;2022-11-20T12:39:02;98309.63;;;23.50;43.47
26376;BME280;30544;42.196;24.336;2022-11-20T12:41:46;98307.66;;;23.75;43.46
26376;BME280;30544;42.196;24.336;2022-11-20T12:45:05;98312.84;;;23.60;43.37
26376;BME280;30544;42.196;24.336;2022-11-20T12:47:51;98308.56;;;23.79;43.20
26376;BME280;30544;42.196;24.336;2022-11-20T12:50:31;98308.94;;;23.65;43.47
26376;BME280;30544;42.196;24.336;2022-11-20T12:53:04;98316.16;;;23.62;43.15
26376;BME280;30544;42.196;24.336;2022-11-20T12:55:47;98318.16;;;23.62;44.05
26376;BME280;30544;42.196;24.336;2022-11-20T12:58:23;98330.66;;;23.61;44.12
26376;BME280;30544;42.196;24.336;2022-11-20T13:01:00;98330.03;;;23.55;43.29
26376;BME280;30544;42.196;24.336;2022-11-20T13:03:36;98338.53;;;23.55;43.79
26376;BME280;30544;42.196;24.336;2022-11-20T13:06:12;98340.53;;;23.55;43.74
26376;BME280;30544;42.196;24.336;2022-11-20T13:08:43;98347.34;;;23.29;44.97
26376;BME280;30544;42.196;24.336;2022-11-20T13:11:16;98351.00;;;23.30;45.77
26376;BME280;30544;42.196;24.336;2022-11-20T13:13:55;98364.19;;;23.14;47.46
26376;BME280;30544;42.196;24.336;2022-11-20T13:16:33;98374.97;;;22.87;50.87
26376;BME280;30544;42.196;24.336;2022-11-20T13:19:03;98382.97;;;22.85;50.63
26376;BME280;30544;42.196;24.336;2022-11-20T13:21:39;98392.13;;;22.82;51.55
26376;BME280;30544;42.196;24.336;2022-11-20T13:24:06;98420.91;;;22.42;55.39
26376;BME280;30544;42.196;24.336;2022-11-20T13:26:36;98436.47;;;21.69;57.52
26376;BME280;30544;42.196;24.336;2022-11-20T13:29:09;98455.47;;;21.51;57.78
26376;BME280;30544;42.196;24.336;2022-11-20T13:31:41;98450.44;;;21.01;60.33
26376;BME280;30544;42.196;24.336;2022-11-20T13:34:12;98452.94;;;20.25;66.17
26376;BME280;30544;42.196;24.336;2022-11-20T13:36:50;98451.75;;;20.08;65.15
26376;BME280;30544;42.196;24.336;2022-11-20T13:39:24;98454.69;;;19.86;66.59
26376;BME280;30544;42.196;24.336;2022-11-20T13:41:54;98450.78;;;19.65;67.35
26376;BME280;30544;42.196;24.336;2022-11-20T13:44:24;98443.63;;;19.50;68.99
26376;BME280;30544;42.196;24.336;2022-11-20T13:46:53;98452.38;;;19.48;67.34
26376;BME280;30544;42.196;24.336;2022-11-20T13:49:25;98461.88;;;19.30;67.88
26376;BME280;30544;42.196;24.336;2022-11-20T13:52:00;98454.63;;;19.07;68.90
26376;BME280;30544;42.196;24.336;2022-11-20T13:54:51;98440.16;;;18.91;69.85
26376;BME280;30544;42.196;24.336;2022-11-20T13:57:38;98431.38;;;18.84;71.25
26376;BME280;30544;42.196;24.336;2022-11-20T14:00:12;98411.06;;;18.87;71.28
26376;BME280;30544;42.196;24.336;2022-11-20T14:02:42;98398.09;;;19.00;72.29
26376;BME280;30544;42.196;24.336;2022-11-20T14:05:18;98379.94;;;18.75;72.92
26376;BME280;30544;42.196;24.336;2022-11-20T14:07:47;98368.13;;;18.64;72.34
26376;BME280;30544;42.196;24.336;2022-11-20T14:10:22;98344.53;;;18.65;73.35
26376;BME280;30544;42.196;24.336;2022-11-20T14:12:49;98340.94;;;18.51;71.18
26376;BME280;30544;42.196;24.336;2022-11-20T14:15:28;98328.56;;;18.29;71.47
26376;BME280;30544;42.196;24.336;2022-11-20T14:17:57;98326.69;;;18.47;70.00
26376;BME280;30544;42.196;24.336;2022-11-20T14:20:25;98348.47;;;18.42;69.70
26376;BME280;30544;42.196;24.336;2022-11-20T14:22:54;98364.88;;;18.48;68.69
26376;BME280;30544;42.196;24.336;2022-11-20T14:25:22;98353.78;;;18.66;67.40
26376;BME280;30544;42.196;24.336;2022-11-20T14:27:56;98373.19;;;18.62;68.94
26376;BME280;30544;42.196;24.336;2022-11-20T14:30:25;98373.59;;;18.24;71.62
26376;BME280;30544;42.196;24.336;2022-11-20T14:32:54;98375.25;;;18.25;71.64
26376;BME280;30544;42.196;24.336;2022-11-20T14:35:26;98366.97;;;18.20;72.59
26376;BME280;30544;42.196;24.336;2022-11-20T14:37:54;98345.50;;;18.16;71.95
26376;BME280;30544;42.196;24.336;2022-11-20T14:40:27;98356.00;;;18.55;70.70
26376;BME280;30544;42.196;24.336;2022-11-20T14:42:54;98344.31;;;18.39;68.81
26376;BME280;30544;42.196;24.336;2022-11-20T14:45:25;98356.00;;;18.32;68.93
26376;BME280;30544;42.196;24.336;2022-11-20T14:47:53;98360.59;;;18.51;63.46
26376;BME280;30544;42.196;24.336;2022-11-20T14:50:25;98357.47;;;18.75;63.94
26376;BME280;30544;42.196;24.336;2022-11-20T14:52:53;98369.69;;;18.79;64.25
26376;BME280;30544;42.196;24.336;2022-11-20T14:55:31;98375.28;;;18.70;64.79